createdAt,value
2022-08-17T00:01:51.581Z,20.53
2022-08-17T00:04:19.875Z,20.51
2022-08-17T00:06:48.616Z,20.50
2022-08-17T00:09:18.774Z,20.46
2022-08-17T00:12:42.317Z,20.43
2022-08-17T00:14:35.123Z,20.41
2022-08-17T00:17:03.705Z,20.40
2022-08-17T00:19:32.507Z,20.36
2022-08-17T00:22:32.379Z,20.35
2022-08-17T00:24:47.539Z,20.33
2022-08-17T00:27:14.102Z,20.30
2022-08-17T00:29:41.127Z,20.28
2022-08-17T00:33:14.246Z,20.24
2022-08-17T00:34:54.465Z,20.18
2022-08-17T00:37:21.033Z,20.11
2022-08-17T00:39:47.722Z,20.03
2022-08-17T00:42:16.182Z,19.94
2022-08-17T00:44:42.866Z,19.88
2022-08-17T00:47:09.514Z,19.83
2022-08-17T00:49:36.080Z,19.78
2022-08-17T00:52:10.808Z,19.73
2022-08-17T00:54:41.795Z,19.69
2022-08-17T00:57:11.850Z,19.60
2022-08-17T00:59:42.784Z,19.59
2022-08-17T01:02:12.664Z,19.57
2022-08-17T01:04:39.537Z,19.55
2022-08-17T01:07:06.705Z,19.52
2022-08-17T01:09:33.773Z,19.48
2022-08-17T01:12:00.534Z,19.44
2022-08-17T01:14:27.257Z,19.39
2022-08-17T01:16:55.510Z,19.34
2022-08-17T01:19:29.566Z,19.29
2022-08-17T01:22:11.175Z,19.26
2022-08-17T01:24:47.655Z,19.18
2022-08-17T01:27:16.053Z,19.09
2022-08-17T01:29:48.824Z,19.07
2022-08-17T01:32:15.750Z,19.01
2022-08-17T01:34:50.088Z,18.97
2022-08-17T01:37:19.117Z,18.92
2022-08-17T01:39:51.476Z,18.86
2022-08-17T01:42:29.850Z,18.84
2022-08-17T01:44:58.878Z,18.80
2022-08-17T01:47:25.828Z,18.79
2022-08-17T01:49:52.451Z,18.77
2022-08-17T01:52:19.522Z,18.73
2022-08-17T01:54:47.363Z,18.71
2022-08-17T01:57:14.102Z,18.70
2022-08-17T01:59:40.749Z,18.64
2022-08-17T02:02:07.626Z,18.61
2022-08-17T02:04:34.819Z,18.58
2022-08-17T02:07:01.406Z,18.57
2022-08-17T02:09:29.517Z,18.46
2022-08-17T02:11:58.640Z,18.40
2022-08-17T02:14:25.910Z,18.39
2022-08-17T02:16:53.035Z,18.32
2022-08-17T02:19:20.303Z,18.26
2022-08-17T02:21:48.930Z,18.19
2022-08-17T02:24:58.741Z,18.13
2022-08-17T02:27:06.841Z,18.12
2022-08-17T02:29:33.492Z,18.09
2022-08-17T02:32:01.622Z,18.04
2022-08-17T02:34:28.862Z,18.01
2022-08-17T02:36:55.606Z,17.95
2022-08-17T02:39:22.215Z,17.92
2022-08-17T02:41:48.961Z,17.87
2022-08-17T02:44:39.332Z,17.84
2022-08-17T02:47:03.342Z,17.80
2022-08-17T02:49:30.282Z,17.76
2022-08-17T02:51:58.075Z,17.76
2022-08-17T02:54:41.144Z,17.76
2022-08-17T02:57:09.493Z,17.77
2022-08-17T02:59:36.084Z,17.74
2022-08-17T03:02:04.369Z,17.78
2022-08-17T03:04:31.740Z,17.71
2022-08-17T03:07:02.787Z,17.67
2022-08-17T03:09:29.378Z,17.67
2022-08-17T03:12:13.187Z,17.72
2022-08-17T03:14:41.679Z,17.70
2022-08-17T03:17:10.011Z,17.70
2022-08-17T03:19:37.369Z,17.66
2022-08-17T03:22:35.864Z,17.63
2022-08-17T03:24:56.851Z,17.64
2022-08-17T03:27:23.499Z,17.59
2022-08-17T03:29:50.138Z,17.59
2022-08-17T03:32:16.766Z,17.56
2022-08-17T03:34:43.481Z,17.50
2022-08-17T03:37:10.098Z,17.46
2022-08-17T03:39:36.783Z,17.45
2022-08-17T03:42:31.928Z,17.47
2022-08-17T03:44:59.308Z,17.51
2022-08-17T03:47:44.391Z,17.48
2022-08-17T03:50:30.783Z,17.51
2022-08-17T03:53:16.006Z,17.49
2022-08-17T03:56:01.751Z,17.48
2022-08-17T03:58:28.408Z,17.49
2022-08-17T04:00:55.295Z,17.46
2022-08-17T04:03:21.951Z,17.45
2022-08-17T04:05:48.521Z,17.43
2022-08-17T04:08:15.175Z,17.45
2022-08-17T04:10:45.176Z,17.45
2022-08-17T04:13:12.194Z,17.49
2022-08-17T04:15:38.798Z,17.51
2022-08-17T04:18:07.343Z,17.47
2022-08-17T04:20:34.499Z,17.47
2022-08-17T04:23:14.217Z,17.50
2022-08-17T04:25:44.180Z,17.55
2022-08-17T04:28:15.622Z,17.60
2022-08-17T04:30:45.251Z,17.65
2022-08-17T04:33:15.579Z,17.74
2022-08-17T04:35:48.034Z,17.81
2022-08-17T04:38:17.336Z,17.93
2022-08-17T04:41:03.573Z,18.07
2022-08-17T04:43:31.578Z,18.22
2022-08-17T04:46:04.709Z,18.38
2022-08-17T04:48:37.238Z,18.51
2022-08-17T04:51:13.521Z,18.68
2022-08-17T04:53:42.936Z,18.81
2022-08-17T04:56:11.707Z,19.00
2022-08-17T04:58:44.389Z,19.13
2022-08-17T05:01:11.186Z,19.26
2022-08-17T05:03:37.939Z,19.43
2022-08-17T05:06:05.089Z,19.57
2022-08-17T05:08:31.753Z,19.70
2022-08-17T05:10:58.533Z,19.89
2022-08-17T05:13:26.922Z,20.06
2022-08-17T05:16:01.825Z,20.21
2022-08-17T05:18:29.539Z,20.38
2022-08-17T05:20:57.024Z,20.54
2022-08-17T05:23:26.031Z,20.67
2022-08-17T05:25:55.377Z,20.84
2022-08-17T05:28:24.083Z,20.96
2022-08-17T05:30:56.326Z,21.18
2022-08-17T05:33:25.667Z,21.30
2022-08-17T05:35:55.283Z,21.48
2022-08-17T05:38:23.447Z,21.62
2022-08-17T05:40:50.405Z,21.75
2022-08-17T05:43:27.319Z,21.83
2022-08-17T05:46:06.229Z,22.01
2022-08-17T05:48:39.906Z,22.07
2022-08-17T05:51:37.134Z,22.16
2022-08-17T05:54:21.760Z,22.34
2022-08-17T05:57:07.211Z,22.53
2022-08-17T05:59:33.843Z,22.73
2022-08-17T06:02:08.677Z,22.90
2022-08-17T06:05:01.590Z,23.03
2022-08-17T06:07:32.906Z,23.15
2022-08-17T06:10:14.738Z,23.28
2022-08-17T06:13:03.528Z,23.35
2022-08-17T06:15:47.732Z,23.49
2022-08-17T06:18:18.595Z,23.63
2022-08-17T06:20:50.614Z,23.74
2022-08-17T06:23:42.763Z,23.88
2022-08-17T06:26:25.888Z,24.00
2022-08-17T06:29:03.422Z,24.16
2022-08-17T06:31:35.209Z,24.30
2022-08-17T06:34:03.564Z,24.43
2022-08-17T06:37:01.783Z,24.60
2022-08-17T06:40:01.996Z,24.80
2022-08-17T06:43:00.875Z,24.94
2022-08-17T06:45:31.332Z,25.08
2022-08-17T06:48:09.139Z,25.24
2022-08-17T06:50:40.016Z,25.36
2022-08-17T06:53:31.772Z,25.44
2022-08-17T06:56:14.514Z,25.43
2022-08-17T06:58:43.433Z,25.56
2022-08-17T07:01:14.964Z,25.70
2022-08-17T07:03:49.845Z,25.76
2022-08-17T07:06:21.997Z,25.88
2022-08-17T07:08:54.716Z,26.07
2022-08-17T07:11:32.481Z,26.16
2022-08-17T07:14:39.379Z,26.35
2022-08-17T07:17:11.499Z,26.48
2022-08-17T07:19:41.168Z,26.66
2022-08-17T07:22:55.324Z,26.80
2022-08-17T07:25:26.267Z,26.95
2022-08-17T07:27:55.886Z,27.07
2022-08-17T07:30:25.679Z,27.20
2022-08-17T07:33:02.543Z,27.15
2022-08-17T07:35:37.635Z,27.27
2022-08-17T07:38:26.301Z,27.36
2022-08-17T07:41:03.349Z,27.48
2022-08-17T07:43:31.222Z,27.61
2022-08-17T07:46:35.313Z,27.37
2022-08-17T07:49:07.592Z,27.65
2022-08-17T07:51:39.694Z,27.75
2022-08-17T07:54:15.405Z,27.91
2022-08-17T07:56:48.113Z,27.96
2022-08-17T07:59:23.609Z,28.05
2022-08-17T08:01:57.736Z,28.15
2022-08-17T08:04:59.640Z,28.24
2022-08-17T08:07:42.432Z,28.30
2022-08-17T08:10:16.603Z,28.24
2022-08-17T08:12:53.684Z,28.43
2022-08-17T08:15:23.476Z,28.62
2022-08-17T08:18:00.724Z,28.64
2022-08-17T08:20:53.252Z,28.69
2022-08-17T08:23:42.317Z,28.77
2022-08-17T08:26:18.871Z,28.83
2022-08-17T08:29:03.786Z,28.74
2022-08-17T08:31:57.642Z,28.81
2022-08-17T08:34:47.360Z,28.99
2022-08-17T08:37:32.626Z,29.23
2022-08-17T08:40:17.958Z,29.37
2022-08-17T08:42:56.989Z,29.46
2022-08-17T08:45:49.828Z,29.62
2022-08-17T08:48:56.311Z,29.57
2022-08-17T08:51:28.159Z,29.77
2022-08-17T08:54:03.412Z,29.85
2022-08-17T08:57:11.969Z,30.04
2022-08-17T08:59:41.804Z,30.16
2022-08-17T09:02:19.987Z,30.26
2022-08-17T09:05:31.732Z,30.44
2022-08-17T09:08:12.523Z,30.45
2022-08-17T09:11:21.331Z,30.70
2022-08-17T09:14:21.229Z,30.87
2022-08-17T09:16:55.611Z,30.99
2022-08-17T09:19:49.968Z,31.06
2022-08-17T09:22:25.536Z,31.13
2022-08-17T09:25:08.567Z,31.31
2022-08-17T09:27:53.322Z,31.17
2022-08-17T09:30:21.270Z,31.30
2022-08-17T09:32:55.305Z,31.39
2022-08-17T09:35:25.123Z,31.41
2022-08-17T09:38:20.434Z,31.58
2022-08-17T09:41:11.395Z,31.72
2022-08-17T09:44:00.398Z,31.56
2022-08-17T09:46:39.432Z,31.74
2022-08-17T09:49:15.044Z,31.94
2022-08-17T09:51:52.199Z,32.11
2022-08-17T09:54:39.228Z,32.29
2022-08-17T09:57:43.427Z,32.38
2022-08-17T10:00:29.242Z,32.55
2022-08-17T10:03:20.048Z,32.68
2022-08-17T10:06:10.721Z,32.81
2022-08-17T10:09:07.415Z,32.83
2022-08-17T10:12:06.426Z,32.97
2022-08-17T10:14:44.926Z,32.92
2022-08-17T10:17:23.213Z,32.72
2022-08-17T10:19:49.757Z,32.79
2022-08-17T10:22:54.826Z,33.09
2022-08-17T10:25:54.544Z,33.28
2022-08-17T10:28:30.293Z,33.43
2022-08-17T10:31:30.944Z,33.53
2022-08-17T10:33:57.684Z,33.48
2022-08-17T10:36:43.169Z,33.48
2022-08-17T10:39:52.671Z,33.41
2022-08-17T10:42:30.249Z,33.32
2022-08-17T10:45:26.701Z,33.52
2022-08-17T10:48:36.804Z,33.37
2022-08-17T10:51:08.882Z,33.47
2022-08-17T10:53:35.487Z,33.54
2022-08-17T10:56:14.242Z,33.66
2022-08-17T10:58:55.903Z,33.80
2022-08-17T11:01:43.445Z,33.95
2022-08-17T11:04:21.199Z,34.18
2022-08-17T11:07:27.912Z,34.23
2022-08-17T11:10:17.010Z,34.43
2022-08-17T11:12:47.680Z,34.27
2022-08-17T11:15:37.063Z,34.55
2022-08-17T11:18:33.118Z,34.66
2022-08-17T11:21:17.884Z,34.76
2022-08-17T11:24:00.005Z,34.86
2022-08-17T11:26:32.659Z,34.49
2022-08-17T11:29:02.201Z,34.48
2022-08-17T11:31:38.747Z,34.68
2022-08-17T11:34:19.383Z,34.88
2022-08-17T11:37:26.196Z,34.95
2022-08-17T11:40:06.479Z,35.13
2022-08-17T11:42:57.275Z,34.89
2022-08-17T11:45:40.239Z,34.86
2022-08-17T11:48:34.642Z,34.84
2022-08-17T11:51:34.976Z,34.57
2022-08-17T11:57:26.929Z,34.52
2022-08-17T12:00:10.630Z,34.64
2022-08-17T12:02:47.552Z,34.77
2022-08-17T12:05:16.860Z,34.98
2022-08-17T12:07:56.817Z,35.12
2022-08-17T12:10:31.997Z,35.10
2022-08-17T12:12:59.951Z,35.21
2022-08-17T12:15:36.665Z,34.89
2022-08-17T12:18:03.679Z,34.99
2022-08-17T12:20:34.747Z,34.87
2022-08-17T12:23:20.181Z,34.92
2022-08-17T12:25:59.444Z,34.99
2022-08-17T12:28:29.084Z,35.04
2022-08-17T12:31:06.978Z,34.84
2022-08-17T12:33:36.609Z,34.80
2022-08-17T12:36:05.961Z,35.02
2022-08-17T12:38:34.757Z,35.22
2022-08-17T12:41:21.529Z,35.37
2022-08-17T12:44:01.675Z,35.72
2022-08-17T12:46:33.624Z,36.00
2022-08-17T12:49:32.961Z,36.25
2022-08-17T12:52:05.728Z,36.48
2022-08-17T12:54:41.673Z,36.64
2022-08-17T12:57:21.729Z,36.70
2022-08-17T12:59:59.722Z,36.68
2022-08-17T13:02:39.063Z,36.63
2022-08-17T13:05:07.657Z,36.67
2022-08-17T13:07:46.521Z,36.49
2022-08-17T13:10:18.387Z,36.74
2022-08-17T13:12:45.163Z,36.88
2022-08-17T13:15:35.201Z,36.96
2022-08-17T13:18:07.076Z,37.19
2022-08-17T13:20:34.844Z,37.18
2022-08-17T13:23:11.382Z,37.19
2022-08-17T13:25:39.071Z,37.30
2022-08-17T13:28:05.698Z,37.34
2022-08-17T13:30:33.504Z,37.58
2022-08-17T13:33:04.809Z,37.67
2022-08-17T13:35:45.912Z,37.76
2022-08-17T13:38:52.895Z,37.32
2022-08-17T13:41:34.876Z,37.21
2022-08-17T13:44:02.091Z,37.37
2022-08-17T13:46:31.633Z,37.23
2022-08-17T13:49:01.397Z,37.51
2022-08-17T13:51:36.850Z,37.49
2022-08-17T13:54:06.200Z,36.72
2022-08-17T13:56:38.598Z,36.43
2022-08-17T13:59:07.976Z,36.81
2022-08-17T14:01:48.517Z,36.81
2022-08-17T14:04:23.783Z,36.94
2022-08-17T14:07:11.453Z,36.21
2022-08-17T14:09:40.839Z,36.23
2022-08-17T14:12:12.966Z,36.51
2022-08-17T14:14:40.841Z,36.22
2022-08-17T14:17:07.951Z,35.89
2022-08-17T14:19:35.074Z,35.98
2022-08-17T14:22:02.191Z,36.41
2022-08-17T14:24:35.203Z,36.19
2022-08-17T14:27:03.651Z,36.41
2022-08-17T14:29:32.068Z,36.21
2022-08-17T14:32:04.351Z,36.10
2022-08-17T14:34:31.115Z,36.39
2022-08-17T14:36:57.777Z,36.70
2022-08-17T14:39:24.411Z,36.71
2022-08-17T14:41:51.034Z,36.47
2022-08-17T14:44:17.731Z,36.45
2022-08-17T14:46:44.901Z,36.37
2022-08-17T14:49:12.859Z,36.27
2022-08-17T14:51:44.234Z,36.09
2022-08-17T14:54:33.105Z,36.10
2022-08-17T14:57:23.811Z,36.10
2022-08-17T14:59:49.234Z,36.04
2022-08-17T15:02:22.732Z,36.15
2022-08-17T15:05:05.096Z,36.47
2022-08-17T15:07:31.928Z,36.54
2022-08-17T15:10:01.508Z,36.35
2022-08-17T15:12:33.215Z,36.46
2022-08-17T15:15:01.178Z,36.52
2022-08-17T15:17:44.565Z,36.53
2022-08-17T15:20:15.783Z,36.34
2022-08-17T15:22:43.781Z,36.36
2022-08-17T15:25:11.296Z,35.95
2022-08-17T15:27:37.927Z,36.13
2022-08-17T15:30:07.287Z,36.19
2022-08-17T15:32:37.915Z,36.02
2022-08-17T15:35:06.181Z,35.95
2022-08-17T15:37:33.446Z,35.76
2022-08-17T15:40:01.291Z,35.48
2022-08-17T15:42:29.322Z,35.26
2022-08-17T15:44:56.587Z,35.28
2022-08-17T15:47:23.326Z,35.21
2022-08-17T15:49:51.023Z,35.10
2022-08-17T15:52:23.978Z,34.98
2022-08-17T15:54:52.602Z,34.83
2022-08-17T15:57:19.299Z,34.80
2022-08-17T15:59:46.810Z,34.69
2022-08-17T16:03:14.561Z,34.47
2022-08-17T16:05:15.572Z,34.61
2022-08-17T16:07:45.634Z,34.62
2022-08-17T16:10:18.207Z,34.75
2022-08-17T16:12:46.818Z,34.87
2022-08-17T16:15:13.876Z,35.09
2022-08-17T16:17:43.857Z,35.15
2022-08-17T16:20:20.021Z,35.16
2022-08-17T16:22:48.884Z,35.14
2022-08-17T16:25:19.588Z,35.05
2022-08-17T16:27:49.087Z,35.01
2022-08-17T16:30:17.508Z,34.90
2022-08-17T16:32:45.982Z,34.71
2022-08-17T16:35:17.326Z,34.36
2022-08-17T16:37:45.605Z,34.17
2022-08-17T16:40:13.564Z,34.01
2022-08-17T16:42:40.375Z,33.82
2022-08-17T16:45:10.841Z,33.67
2022-08-17T16:47:38.069Z,33.45
2022-08-17T16:50:06.498Z,33.27
2022-08-17T16:52:33.651Z,33.16
2022-08-17T16:55:04.398Z,32.94
2022-08-17T16:57:32.480Z,32.57
2022-08-17T16:59:59.194Z,32.37
2022-08-17T17:02:34.599Z,32.18
2022-08-17T17:05:16.459Z,32.06
2022-08-17T17:07:54.893Z,31.89
2022-08-17T17:10:31.798Z,31.75
2022-08-17T17:13:02.303Z,31.63
2022-08-17T17:15:53.321Z,31.46
2022-08-17T17:18:23.410Z,31.15
2022-08-17T17:20:55.852Z,30.95
2022-08-17T17:23:32.159Z,30.77
2022-08-17T17:26:13.523Z,30.57
2022-08-17T17:28:52.086Z,30.43
2022-08-17T17:31:21.344Z,30.29
2022-08-17T17:34:00.572Z,30.18
2022-08-17T17:36:33.383Z,30.08
2022-08-17T17:39:43.548Z,29.93
2022-08-17T17:42:19.986Z,29.74
2022-08-17T17:44:49.332Z,29.53
2022-08-17T17:47:16.239Z,29.40
2022-08-17T17:49:45.119Z,29.29
2022-08-17T17:52:47.419Z,29.19
2022-08-17T17:55:30.203Z,29.02
2022-08-17T17:58:09.044Z,28.85
2022-08-17T18:01:03.283Z,28.64
2022-08-17T18:03:44.209Z,28.48
2022-08-17T18:06:21.170Z,28.31
2022-08-17T18:09:19.396Z,28.18
2022-08-17T18:12:03.395Z,28.02
2022-08-17T18:14:54.725Z,27.85
2022-08-17T18:17:21.588Z,27.69
2022-08-17T18:19:48.311Z,27.57
2022-08-17T18:22:24.461Z,27.45
2022-08-17T18:24:56.093Z,27.30
2022-08-17T18:27:35.496Z,27.17
2022-08-17T18:30:24.327Z,27.05
2022-08-17T18:32:51.086Z,26.92
2022-08-17T18:35:22.243Z,26.78
2022-08-17T18:37:50.384Z,26.65
2022-08-17T18:40:17.242Z,26.53
2022-08-17T18:42:45.805Z,26.42
2022-08-17T18:45:13.659Z,26.32
2022-08-17T18:48:26.815Z,26.24
2022-08-17T18:51:00.174Z,26.13
2022-08-17T18:53:33.441Z,26.01
2022-08-17T18:56:15.833Z,25.96
2022-08-17T18:58:42.784Z,25.84
2022-08-17T19:01:19.151Z,25.74
2022-08-17T19:03:46.564Z,25.67
2022-08-17T19:06:33.031Z,25.57
2022-08-17T19:09:00.375Z,25.55
2022-08-17T19:11:34.221Z,25.40
2022-08-17T19:14:02.447Z,25.36
2022-08-17T19:16:36.375Z,25.26
2022-08-17T19:19:30.814Z,25.19
2022-08-17T19:22:03.378Z,25.08
2022-08-17T19:24:31.777Z,25.02
2022-08-17T19:27:19.594Z,24.98
2022-08-17T19:29:48.346Z,24.91
2022-08-17T19:32:21.685Z,24.81
2022-08-17T19:34:48.424Z,24.73
2022-08-17T19:37:33.683Z,24.69
2022-08-17T19:40:08.793Z,24.64
2022-08-17T19:42:52.030Z,24.62
2022-08-17T19:45:46.339Z,24.54
2022-08-17T19:48:35.632Z,24.40
2022-08-17T19:51:15.844Z,24.33
2022-08-17T19:54:05.010Z,24.26
2022-08-17T19:57:05.179Z,24.25
2022-08-17T19:59:52.411Z,24.16
2022-08-17T20:02:55.807Z,24.05
2022-08-17T20:05:40.643Z,23.98
2022-08-17T20:08:40.927Z,23.91
2022-08-17T20:11:16.016Z,23.83
2022-08-17T20:13:50.996Z,23.70
2022-08-17T20:16:19.343Z,23.64
2022-08-17T20:18:58.047Z,23.61
2022-08-17T20:21:46.399Z,23.56
2022-08-17T20:24:34.311Z,23.50
2022-08-17T20:27:19.108Z,23.42
2022-08-17T20:30:11.525Z,23.28
2022-08-17T20:32:51.955Z,23.20
2022-08-17T20:35:18.499Z,23.16
2022-08-17T20:37:53.328Z,23.01
2022-08-17T20:40:24.187Z,23.00
2022-08-17T20:42:50.855Z,22.92
2022-08-17T20:45:20.439Z,22.90
2022-08-17T20:48:18.672Z,22.86
2022-08-17T20:50:44.426Z,22.79
2022-08-17T20:53:13.565Z,22.71
2022-08-17T20:55:51.862Z,22.68
2022-08-17T20:58:21.023Z,22.64
2022-08-17T21:00:56.814Z,22.58
2022-08-17T21:03:23.614Z,22.55
2022-08-17T21:06:16.882Z,22.47
2022-08-17T21:08:54.847Z,22.44
2022-08-17T21:11:59.943Z,22.38
2022-08-17T21:14:24.762Z,22.27
2022-08-17T21:17:29.663Z,22.20
2022-08-17T21:20:13.808Z,22.08
2022-08-17T21:22:52.732Z,22.10
2022-08-17T21:25:28.540Z,22.02
2022-08-17T21:28:14.178Z,22.01
2022-08-17T21:30:41.004Z,22.03
2022-08-17T21:33:15.130Z,22.00
2022-08-17T21:36:23.706Z,21.94
2022-08-17T21:38:53.374Z,21.99
2022-08-17T21:41:34.291Z,21.98
2022-08-17T21:44:12.140Z,21.91
2022-08-17T21:46:42.887Z,21.89
2022-08-17T21:49:16.596Z,21.88
2022-08-17T21:51:53.809Z,21.89
2022-08-17T21:54:36.718Z,21.85
2022-08-17T21:57:06.234Z,21.75
2022-08-17T21:59:36.788Z,21.74
2022-08-17T22:02:07.753Z,21.74
2022-08-17T22:04:40.376Z,21.71
2022-08-17T22:07:10.671Z,21.63
2022-08-17T22:09:48.730Z,21.62
2022-08-17T22:12:16.470Z,21.59
2022-08-17T22:15:01.026Z,21.55
2022-08-17T22:17:35.402Z,21.48
2022-08-17T22:20:05.632Z,21.41
2022-08-17T22:22:56.513Z,21.34
2022-08-17T22:25:24.915Z,21.27
2022-08-17T22:28:03.167Z,21.21
2022-08-17T22:30:29.909Z,21.17
2022-08-17T22:32:56.975Z,21.13
2022-08-17T22:35:32.551Z,21.09
2022-08-17T22:38:18.049Z,21.00
2022-08-17T22:40:50.312Z,20.94
2022-08-17T22:43:21.353Z,20.89
2022-08-17T22:45:55.146Z,20.88
2022-08-17T22:48:27.103Z,20.83
2022-08-17T22:51:15.040Z,20.83
2022-08-17T22:54:14.027Z,20.77
2022-08-17T22:57:18.959Z,20.67
2022-08-17T22:59:53.894Z,20.63
2022-08-17T23:02:24.779Z,20.60
2022-08-17T23:05:16.925Z,20.54
2022-08-17T23:07:45.137Z,20.55
2022-08-17T23:10:12.872Z,20.52
2022-08-17T23:12:39.818Z,20.49
2022-08-17T23:15:12.728Z,20.51
2022-08-17T23:17:39.380Z,20.43
2022-08-17T23:20:08.505Z,20.41
2022-08-17T23:22:36.957Z,20.33
2022-08-17T23:25:04.404Z,20.33
2022-08-17T23:27:32.061Z,20.33
2022-08-17T23:29:58.755Z,20.30
2022-08-17T23:32:25.823Z,20.29
2022-08-17T23:34:52.459Z,20.25
2022-08-17T23:37:19.606Z,20.22
2022-08-17T23:39:46.396Z,20.19
2022-08-17T23:42:15.588Z,20.15
2022-08-17T23:44:43.845Z,20.13
2022-08-17T23:47:11.243Z,20.07
2022-08-17T23:49:39.167Z,20.01
2022-08-17T23:52:09.908Z,19.96
2022-08-17T23:54:46.500Z,19.90
2022-08-17T23:57:33.067Z,19.89
